Pagina principală
METAR-TAF:

METAR-TAF

Aeroporturi :

Cleburne Municipal Airport

Cleburne, Texas, Statele Unite ale Americii

Latitudine: 32-21-13N, longitudine: 097-26-01W, elevație: 260 m

Observații meteo curente

Raportul a fost făcut în urmă cu 30 de minute, la 22:55 UTC
Vânt 6 kt din direcții variabile cu rafale de până la 12 kt
Temperatură 34°C
Umiditate 41%
Presiune 1015 hPa
Vizibilitate: 16.1 km
Cer senin

METAR: KCPT 222255Z AUTO VRB06G12KT 10SM CLR 34/19 A2998 RMK A01

Ora: 18:25 (23:25 UTC)


TAF: lipsă

Observații și prognoze meteo pentru peste 4.000 de aeroporturi (rapoarte METAR și TAF).

Stațiile disponibile sunt reprezentate pe hartă prin puncte galbene și roșii.

Țineți indicatorul mouse-ului pe punctul dorit pentru a vedea denumirea stației.

Apoi, faceți clic pentru a vedea observațiile și prognozele meteorologice.

Pentru a schimba harta: Pentru mărire, faceți clic pe butoanele verzi cu cruce neagră; pentru micșorare, pe butonul verde cu o liniuță; pentru hărți învecinate, pe săgețile verzi.


METAR-TAF: